sensor_id;sensor_type;location;lat;lon;timestamp;P1;durP1;ratioP1;P2;durP2;ratioP2
19675;SDS011;39539;52.202;9.876;2023-04-24T00:00:32;1.73;;;1.27;;
19675;SDS011;39539;52.202;9.876;2023-04-24T00:02:57;1.10;;;1.10;;
19675;SDS011;39539;52.202;9.876;2023-04-24T00:05:23;1.40;;;1.30;;
19675;SDS011;39539;52.202;9.876;2023-04-24T00:07:50;1.23;;;1.17;;
19675;SDS011;39539;52.202;9.876;2023-04-24T00:10:19;1.40;;;1.30;;
19675;SDS011;39539;52.202;9.876;2023-04-24T00:12:44;1.70;;;1.60;;
19675;SDS011;39539;52.202;9.876;2023-04-24T00:15:10;2.15;;;1.60;;
19675;SDS011;39539;52.202;9.876;2023-04-24T00:17:36;1.50;;;1.40;;
19675;SDS011;39539;52.202;9.876;2023-04-24T00:20:01;1.50;;;1.40;;
19675;SDS011;39539;52.202;9.876;2023-04-24T00:22:29;1.45;;;1.30;;
19675;SDS011;39539;52.202;9.876;2023-04-24T00:24:55;1.45;;;1.45;;
19675;SDS011;39539;52.202;9.876;2023-04-24T00:27:21;1.50;;;1.40;;
19675;SDS011;39539;52.202;9.876;2023-04-24T00:29:46;1.73;;;1.63;;
19675;SDS011;39539;52.202;9.876;2023-04-24T00:32:12;1.50;;;1.40;;
19675;SDS011;39539;52.202;9.876;2023-04-24T00:34:37;1.60;;;1.50;;
19675;SDS011;39539;52.202;9.876;2023-04-24T00:37:03;1.52;;;1.42;;
19675;SDS011;39539;52.202;9.876;2023-04-24T00:39:28;1.67;;;1.58;;
19675;SDS011;39539;52.202;9.876;2023-04-24T00:41:54;1.70;;;1.60;;
19675;SDS011;39539;52.202;9.876;2023-04-24T00:44:20;2.85;;;1.90;;
19675;SDS011;39539;52.202;9.876;2023-04-24T00:46:45;1.65;;;1.60;;
19675;SDS011;39539;52.202;9.876;2023-04-24T00:49:12;2.05;;;1.85;;
19675;SDS011;39539;52.202;9.876;2023-04-24T00:51:38;1.83;;;1.70;;
19675;SDS011;39539;52.202;9.876;2023-04-24T00:54:05;1.77;;;1.67;;
19675;SDS011;39539;52.202;9.876;2023-04-24T00:56:31;2.13;;;1.88;;
19675;SDS011;39539;52.202;9.876;2023-04-24T00:58:56;2.00;;;1.90;;
19675;SDS011;39539;52.202;9.876;2023-04-24T01:01:22;1.60;;;1.50;;
19675;SDS011;39539;52.202;9.876;2023-04-24T01:03:51;1.90;;;1.52;;
19675;SDS011;39539;52.202;9.876;2023-04-24T01:06:18;1.90;;;1.70;;
19675;SDS011;39539;52.202;9.876;2023-04-24T01:08:43;1.50;;;1.40;;
19675;SDS011;39539;52.202;9.876;2023-04-24T01:11:11;1.75;;;1.65;;
19675;SDS011;39539;52.202;9.876;2023-04-24T01:13:37;2.00;;;1.90;;
19675;SDS011;39539;52.202;9.876;2023-04-24T01:16:02;1.95;;;1.73;;
19675;SDS011;39539;52.202;9.876;2023-04-24T01:18:28;1.60;;;1.50;;
19675;SDS011;39539;52.202;9.876;2023-04-24T01:20:55;2.05;;;1.85;;
19675;SDS011;39539;52.202;9.876;2023-04-24T01:23:23;2.45;;;1.70;;
19675;SDS011;39539;52.202;9.876;2023-04-24T01:25:48;1.80;;;1.70;;
19675;SDS011;39539;52.202;9.876;2023-04-24T01:28:16;2.10;;;1.90;;
19675;SDS011;39539;52.202;9.876;2023-04-24T01:30:42;1.75;;;1.65;;
19675;SDS011;39539;52.202;9.876;2023-04-24T01:33:08;1.90;;;1.80;;
19675;SDS011;39539;52.202;9.876;2023-04-24T01:35:38;1.75;;;1.65;;
19675;SDS011;39539;52.202;9.876;2023-04-24T01:38:04;1.77;;;1.67;;
19675;SDS011;39539;52.202;9.876;2023-04-24T01:40:32;1.90;;;1.80;;
19675;SDS011;39539;52.202;9.876;2023-04-24T01:42:58;2.10;;;2.00;;
19675;SDS011;39539;52.202;9.876;2023-04-24T01:45:23;1.80;;;1.70;;
19675;SDS011;39539;52.202;9.876;2023-04-24T01:47:49;1.92;;;1.83;;
19675;SDS011;39539;52.202;9.876;2023-04-24T01:50:15;1.65;;;1.40;;
19675;SDS011;39539;52.202;9.876;2023-04-24T01:52:41;1.90;;;1.80;;
19675;SDS011;39539;52.202;9.876;2023-04-24T01:55:06;1.95;;;1.70;;
19675;SDS011;39539;52.202;9.876;2023-04-24T01:57:33;2.13;;;1.90;;
19675;SDS011;39539;52.202;9.876;2023-04-24T01:59:58;1.50;;;1.40;;
19675;SDS011;39539;52.202;9.876;2023-04-24T02:02:24;1.70;;;1.60;;
19675;SDS011;39539;52.202;9.876;2023-04-24T02:04:52;1.60;;;1.50;;
19675;SDS011;39539;52.202;9.876;2023-04-24T02:07:19;1.60;;;1.50;;
19675;SDS011;39539;52.202;9.876;2023-04-24T02:09:45;1.90;;;1.50;;
19675;SDS011;39539;52.202;9.876;2023-04-24T02:12:10;1.30;;;1.30;;
19675;SDS011;39539;52.202;9.876;2023-04-24T02:14:36;1.23;;;1.20;;
19675;SDS011;39539;52.202;9.876;2023-04-24T02:17:01;1.33;;;1.20;;
19675;SDS011;39539;52.202;9.876;2023-04-24T02:19:26;1.30;;;1.30;;
19675;SDS011;39539;52.202;9.876;2023-04-24T02:21:52;1.40;;;1.40;;
19675;SDS011;39539;52.202;9.876;2023-04-24T02:24:17;1.42;;;1.38;;
19675;SDS011;39539;52.202;9.876;2023-04-24T02:26:42;1.83;;;1.40;;
19675;SDS011;39539;52.202;9.876;2023-04-24T02:29:08;1.40;;;1.30;;
19675;SDS011;39539;52.202;9.876;2023-04-24T02:31:33;1.95;;;1.33;;
19675;SDS011;39539;52.202;9.876;2023-04-24T02:33:58;2.17;;;1.58;;
19675;SDS011;39539;52.202;9.876;2023-04-24T02:36:24;1.52;;;1.42;;
19675;SDS011;39539;52.202;9.876;2023-04-24T02:38:50;1.58;;;1.20;;
19675;SDS011;39539;52.202;9.876;2023-04-24T02:41:15;1.13;;;1.13;;
19675;SDS011;39539;52.202;9.876;2023-04-24T02:43:44;1.65;;;1.55;;
19675;SDS011;39539;52.202;9.876;2023-04-24T02:46:10;1.58;;;1.30;;
19675;SDS011;39539;52.202;9.876;2023-04-24T02:48:35;1.40;;;1.30;;
19675;SDS011;39539;52.202;9.876;2023-04-24T02:51:00;1.30;;;1.20;;
19675;SDS011;39539;52.202;9.876;2023-04-24T02:53:26;1.40;;;1.40;;
19675;SDS011;39539;52.202;9.876;2023-04-24T02:55:51;2.05;;;1.58;;
19675;SDS011;39539;52.202;9.876;2023-04-24T02:58:16;1.20;;;1.20;;
19675;SDS011;39539;52.202;9.876;2023-04-24T03:00:42;1.35;;;1.30;;
19675;SDS011;39539;52.202;9.876;2023-04-24T03:03:08;1.33;;;1.25;;
19675;SDS011;39539;52.202;9.876;2023-04-24T03:05:34;1.30;;;1.20;;
19675;SDS011;39539;52.202;9.876;2023-04-24T03:07:59;1.20;;;1.20;;
19675;SDS011;39539;52.202;9.876;2023-04-24T03:10:24;1.50;;;1.40;;
19675;SDS011;39539;52.202;9.876;2023-04-24T03:12:50;1.50;;;1.40;;
19675;SDS011;39539;52.202;9.876;2023-04-24T03:15:15;1.33;;;1.20;;
19675;SDS011;39539;52.202;9.876;2023-04-24T03:17:40;1.42;;;1.10;;
19675;SDS011;39539;52.202;9.876;2023-04-24T03:20:06;1.17;;;1.10;;
19675;SDS011;39539;52.202;9.876;2023-04-24T03:22:33;1.42;;;1.35;;
19675;SDS011;39539;52.202;9.876;2023-04-24T03:24:59;1.30;;;1.20;;
19675;SDS011;39539;52.202;9.876;2023-04-24T03:27:24;1.20;;;1.10;;
19675;SDS011;39539;52.202;9.876;2023-04-24T03:29:50;1.50;;;1.15;;
19675;SDS011;39539;52.202;9.876;2023-04-24T03:32:20;1.40;;;1.30;;
19675;SDS011;39539;52.202;9.876;2023-04-24T03:34:47;1.13;;;1.02;;
19675;SDS011;39539;52.202;9.876;2023-04-24T03:37:12;1.30;;;1.20;;
19675;SDS011;39539;52.202;9.876;2023-04-24T03:39:39;1.98;;;1.25;;
19675;SDS011;39539;52.202;9.876;2023-04-24T03:42:04;1.13;;;1.13;;
19675;SDS011;39539;52.202;9.876;2023-04-24T03:44:30;1.05;;;1.05;;
19675;SDS011;39539;52.202;9.876;2023-04-24T03:46:55;1.00;;;1.00;;
19675;SDS011;39539;52.202;9.876;2023-04-24T03:49:20;0.98;;;0.98;;
19675;SDS011;39539;52.202;9.876;2023-04-24T03:51:46;1.10;;;1.00;;
19675;SDS011;39539;52.202;9.876;2023-04-24T03:54:12;1.13;;;1.10;;
19675;SDS011;39539;52.202;9.876;2023-04-24T03:56:38;1.45;;;1.20;;
19675;SDS011;39539;52.202;9.876;2023-04-24T03:59:04;1.80;;;1.13;;
19675;SDS011;39539;52.202;9.876;2023-04-24T04:01:29;1.10;;;1.00;;
19675;SDS011;39539;52.202;9.876;2023-04-24T04:03:55;0.95;;;0.95;;
19675;SDS011;39539;52.202;9.876;2023-04-24T04:06:22;1.15;;;0.90;;
19675;SDS011;39539;52.202;9.876;2023-04-24T04:08:48;0.90;;;0.90;;
19675;SDS011;39539;52.202;9.876;2023-04-24T04:11:14;1.38;;;0.93;;
19675;SDS011;39539;52.202;9.876;2023-04-24T04:13:40;0.90;;;0.90;;
19675;SDS011;39539;52.202;9.876;2023-04-24T04:16:05;0.80;;;0.80;;
19675;SDS011;39539;52.202;9.876;2023-04-24T04:18:30;1.38;;;0.98;;
19675;SDS011;39539;52.202;9.876;2023-04-24T04:20:55;1.00;;;1.00;;
19675;SDS011;39539;52.202;9.876;2023-04-24T04:23:22;1.50;;;0.98;;
19675;SDS011;39539;52.202;9.876;2023-04-24T04:25:47;1.13;;;0.90;;
19675;SDS011;39539;52.202;9.876;2023-04-24T04:28:13;1.05;;;0.80;;
19675;SDS011;39539;52.202;9.876;2023-04-24T04:30:38;0.82;;;0.70;;
19675;SDS011;39539;52.202;9.876;2023-04-24T04:33:05;0.80;;;0.80;;
19675;SDS011;39539;52.202;9.876;2023-04-24T04:35:30;1.35;;;1.00;;
19675;SDS011;39539;52.202;9.876;2023-04-24T04:37:55;1.67;;;0.85;;
19675;SDS011;39539;52.202;9.876;2023-04-24T04:40:23;1.10;;;0.93;;
19675;SDS011;39539;52.202;9.876;2023-04-24T04:42:49;1.25;;;0.90;;
19675;SDS011;39539;52.202;9.876;2023-04-24T04:45:18;0.95;;;0.90;;
19675;SDS011;39539;52.202;9.876;2023-04-24T04:47:43;0.95;;;0.80;;
19675;SDS011;39539;52.202;9.876;2023-04-24T04:50:09;1.75;;;0.82;;
19675;SDS011;39539;52.202;9.876;2023-04-24T04:52:35;0.80;;;0.80;;
19675;SDS011;39539;52.202;9.876;2023-04-24T04:55:01;1.13;;;1.00;;
19675;SDS011;39539;52.202;9.876;2023-04-24T04:57:26;0.90;;;0.90;;
19675;SDS011;39539;52.202;9.876;2023-04-24T04:59:52;1.67;;;0.80;;
19675;SDS011;39539;52.202;9.876;2023-04-24T05:02:18;1.58;;;1.00;;
19675;SDS011;39539;52.202;9.876;2023-04-24T05:04:44;0.90;;;0.90;;
19675;SDS011;39539;52.202;9.876;2023-04-24T05:07:10;1.73;;;0.90;;
19675;SDS011;39539;52.202;9.876;2023-04-24T05:09:35;0.70;;;0.70;;
19675;SDS011;39539;52.202;9.876;2023-04-24T05:12:01;0.98;;;0.88;;
19675;SDS011;39539;52.202;9.876;2023-04-24T05:14:27;2.15;;;0.80;;
19675;SDS011;39539;52.202;9.876;2023-04-24T05:16:52;1.65;;;1.55;;
19675;SDS011;39539;52.202;9.876;2023-04-24T05:19:18;1.00;;;0.90;;
19675;SDS011;39539;52.202;9.876;2023-04-24T05:21:43;1.17;;;0.80;;
19675;SDS011;39539;52.202;9.876;2023-04-24T05:24:09;1.30;;;1.10;;
19675;SDS011;39539;52.202;9.876;2023-04-24T05:26:34;1.77;;;0.90;;
19675;SDS011;39539;52.202;9.876;2023-04-24T05:29:01;1.75;;;0.70;;
19675;SDS011;39539;52.202;9.876;2023-04-24T05:31:28;0.90;;;0.77;;
19675;SDS011;39539;52.202;9.876;2023-04-24T05:33:53;0.73;;;0.73;;
19675;SDS011;39539;52.202;9.876;2023-04-24T05:36:20;1.02;;;0.90;;
19675;SDS011;39539;52.202;9.876;2023-04-24T05:38:46;1.95;;;0.77;;
19675;SDS011;39539;52.202;9.876;2023-04-24T05:41:11;0.80;;;0.80;;
19675;SDS011;39539;52.202;9.876;2023-04-24T05:43:37;0.60;;;0.60;;
19675;SDS011;39539;52.202;9.876;2023-04-24T05:46:02;0.90;;;0.80;;
19675;SDS011;39539;52.202;9.876;2023-04-24T05:48:27;0.80;;;0.80;;
19675;SDS011;39539;52.202;9.876;2023-04-24T05:50:53;1.10;;;0.80;;
19675;SDS011;39539;52.202;9.876;2023-04-24T05:53:19;0.70;;;0.70;;
19675;SDS011;39539;52.202;9.876;2023-04-24T05:55:44;0.90;;;0.90;;
19675;SDS011;39539;52.202;9.876;2023-04-24T05:58:10;1.67;;;0.70;;
19675;SDS011;39539;52.202;9.876;2023-04-24T06:00:37;3.33;;;1.02;;
19675;SDS011;39539;52.202;9.876;2023-04-24T06:03:04;0.80;;;0.80;;
19675;SDS011;39539;52.202;9.876;2023-04-24T06:05:29;0.80;;;0.80;;
19675;SDS011;39539;52.202;9.876;2023-04-24T06:07:55;1.40;;;0.82;;
19675;SDS011;39539;52.202;9.876;2023-04-24T06:10:21;0.70;;;0.70;;
19675;SDS011;39539;52.202;9.876;2023-04-24T06:12:49;0.70;;;0.70;;
19675;SDS011;39539;52.202;9.876;2023-04-24T06:15:15;1.38;;;0.77;;
19675;SDS011;39539;52.202;9.876;2023-04-24T06:17:40;2.10;;;0.90;;
19675;SDS011;39539;52.202;9.876;2023-04-24T06:20:06;0.70;;;0.70;;
19675;SDS011;39539;52.202;9.876;2023-04-24T06:22:33;1.83;;;0.80;;
19675;SDS011;39539;52.202;9.876;2023-04-24T06:24:59;0.88;;;0.80;;
19675;SDS011;39539;52.202;9.876;2023-04-24T06:27:25;0.95;;;0.90;;
19675;SDS011;39539;52.202;9.876;2023-04-24T06:29:50;0.77;;;0.77;;
19675;SDS011;39539;52.202;9.876;2023-04-24T06:32:21;0.90;;;0.90;;
19675;SDS011;39539;52.202;9.876;2023-04-24T06:34:47;1.17;;;1.08;;
19675;SDS011;39539;52.202;9.876;2023-04-24T06:37:13;1.20;;;1.10;;
19675;SDS011;39539;52.202;9.876;2023-04-24T06:39:39;1.30;;;1.20;;
19675;SDS011;39539;52.202;9.876;2023-04-24T06:42:05;1.23;;;1.20;;
19675;SDS011;39539;52.202;9.876;2023-04-24T06:44:30;1.10;;;1.10;;
19675;SDS011;39539;52.202;9.876;2023-04-24T06:46:55;1.50;;;1.40;;
19675;SDS011;39539;52.202;9.876;2023-04-24T06:49:21;1.65;;;1.55;;
19675;SDS011;39539;52.202;9.876;2023-04-24T06:51:46;1.80;;;1.70;;
19675;SDS011;39539;52.202;9.876;2023-04-24T06:54:12;1.73;;;1.63;;
19675;SDS011;39539;52.202;9.876;2023-04-24T06:56:37;1.92;;;1.83;;
19675;SDS011;39539;52.202;9.876;2023-04-24T06:59:03;2.13;;;1.50;;
19675;SDS011;39539;52.202;9.876;2023-04-24T07:01:28;1.80;;;1.70;;
19675;SDS011;39539;52.202;9.876;2023-04-24T07:03:54;1.80;;;1.70;;
19675;SDS011;39539;52.202;9.876;2023-04-24T07:06:21;2.00;;;1.90;;
19675;SDS011;39539;52.202;9.876;2023-04-24T07:08:49;2.00;;;1.90;;
19675;SDS011;39539;52.202;9.876;2023-04-24T07:11:15;1.90;;;1.80;;
19675;SDS011;39539;52.202;9.876;2023-04-24T07:13:40;2.42;;;2.33;;
19675;SDS011;39539;52.202;9.876;2023-04-24T07:16:07;3.10;;;2.90;;
19675;SDS011;39539;52.202;9.876;2023-04-24T07:18:33;2.25;;;2.15;;
19675;SDS011;39539;52.202;9.876;2023-04-24T07:20:59;2.58;;;2.47;;
19675;SDS011;39539;52.202;9.876;2023-04-24T07:23:24;2.60;;;2.50;;
19675;SDS011;39539;52.202;9.876;2023-04-24T07:25:50;3.10;;;2.90;;
19675;SDS011;39539;52.202;9.876;2023-04-24T07:28:15;3.30;;;3.10;;
19675;SDS011;39539;52.202;9.876;2023-04-24T07:30:42;3.33;;;3.13;;
19675;SDS011;39539;52.202;9.876;2023-04-24T07:33:08;3.70;;;3.50;;
19675;SDS011;39539;52.202;9.876;2023-04-24T07:35:36;4.32;;;3.92;;
19675;SDS011;39539;52.202;9.876;2023-04-24T07:38:01;4.18;;;3.97;;
19675;SDS011;39539;52.202;9.876;2023-04-24T07:40:27;4.38;;;3.92;;
19675;SDS011;39539;52.202;9.876;2023-04-24T07:42:52;4.70;;;3.85;;
19675;SDS011;39539;52.202;9.876;2023-04-24T07:45:18;3.28;;;2.97;;
19675;SDS011;39539;52.202;9.876;2023-04-24T07:47:43;3.70;;;2.70;;
19675;SDS011;39539;52.202;9.876;2023-04-24T07:50:10;3.22;;;3.03;;
19675;SDS011;39539;52.202;9.876;2023-04-24T07:52:37;3.90;;;3.60;;
19675;SDS011;39539;52.202;9.876;2023-04-24T07:55:02;4.43;;;4.13;;
19675;SDS011;39539;52.202;9.876;2023-04-24T07:57:28;4.53;;;4.22;;
19675;SDS011;39539;52.202;9.876;2023-04-24T07:59:54;5.30;;;4.90;;
19675;SDS011;39539;52.202;9.876;2023-04-24T08:02:20;6.05;;;5.53;;
19675;SDS011;39539;52.202;9.876;2023-04-24T08:04:51;5.05;;;4.60;;
19675;SDS011;39539;52.202;9.876;2023-04-24T08:07:18;4.93;;;4.47;;
19675;SDS011;39539;52.202;9.876;2023-04-24T08:09:43;4.63;;;4.25;;
19675;SDS011;39539;52.202;9.876;2023-04-24T08:12:09;4.53;;;4.22;;
19675;SDS011;39539;52.202;9.876;2023-04-24T08:14:34;10.27;;;4.43;;
19675;SDS011;39539;52.202;9.876;2023-04-24T08:17:00;4.35;;;3.95;;
19675;SDS011;39539;52.202;9.876;2023-04-24T08:19:26;4.13;;;3.83;;
19675;SDS011;39539;52.202;9.876;2023-04-24T08:21:51;4.22;;;3.83;;
19675;SDS011;39539;52.202;9.876;2023-04-24T08:24:17;3.97;;;3.67;;
19675;SDS011;39539;52.202;9.876;2023-04-24T08:26:42;3.70;;;3.45;;
19675;SDS011;39539;52.202;9.876;2023-04-24T08:29:08;3.92;;;3.63;;
19675;SDS011;39539;52.202;9.876;2023-04-24T08:31:33;4.30;;;4.00;;
19675;SDS011;39539;52.202;9.876;2023-04-24T08:33:59;3.65;;;3.35;;
19675;SDS011;39539;52.202;9.876;2023-04-24T08:36:26;4.10;;;3.72;;
19675;SDS011;39539;52.202;9.876;2023-04-24T08:38:52;3.80;;;3.50;;
19675;SDS011;39539;52.202;9.876;2023-04-24T08:41:19;3.40;;;3.20;;
19675;SDS011;39539;52.202;9.876;2023-04-24T08:43:47;3.97;;;3.55;;
19675;SDS011;39539;52.202;9.876;2023-04-24T08:46:13;5.22;;;3.60;;
19675;SDS011;39539;52.202;9.876;2023-04-24T08:48:40;3.22;;;2.92;;
19675;SDS011;39539;52.202;9.876;2023-04-24T08:51:09;4.15;;;3.72;;
19675;SDS011;39539;52.202;9.876;2023-04-24T08:53:35;3.17;;;2.97;;
19675;SDS011;39539;52.202;9.876;2023-04-24T08:56:01;2.95;;;2.75;;
19675;SDS011;39539;52.202;9.876;2023-04-24T08:58:28;3.65;;;3.38;;
19675;SDS011;39539;52.202;9.876;2023-04-24T09:00:56;3.85;;;3.55;;
19675;SDS011;39539;52.202;9.876;2023-04-24T09:03:22;4.10;;;3.80;;
19675;SDS011;39539;52.202;9.876;2023-04-24T09:05:48;3.85;;;3.55;;
19675;SDS011;39539;52.202;9.876;2023-04-24T09:08:19;4.80;;;4.40;;
19675;SDS011;39539;52.202;9.876;2023-04-24T09:10:45;5.20;;;4.90;;
19675;SDS011;39539;52.202;9.876;2023-04-24T09:13:11;4.32;;;4.03;;
19675;SDS011;39539;52.202;9.876;2023-04-24T09:15:37;4.13;;;3.78;;
19675;SDS011;39539;52.202;9.876;2023-04-24T09:18:03;3.33;;;3.13;;
19675;SDS011;39539;52.202;9.876;2023-04-24T09:20:29;3.70;;;3.40;;
19675;SDS011;39539;52.202;9.876;2023-04-24T09:22:57;3.50;;;3.20;;
19675;SDS011;39539;52.202;9.876;2023-04-24T09:25:25;3.30;;;3.10;;
19675;SDS011;39539;52.202;9.876;2023-04-24T09:27:59;3.42;;;3.22;;
19675;SDS011;39539;52.202;9.876;2023-04-24T09:30:26;3.60;;;3.40;;
19675;SDS011;39539;52.202;9.876;2023-04-24T09:35:41;3.88;;;3.58;;
19675;SDS011;39539;52.202;9.876;2023-04-24T09:38:17;3.78;;;3.47;;
19675;SDS011;39539;52.202;9.876;2023-04-24T09:40:43;3.95;;;3.65;;
19675;SDS011;39539;52.202;9.876;2023-04-24T09:43:12;3.00;;;2.80;;
19675;SDS011;39539;52.202;9.876;2023-04-24T09:45:39;3.15;;;2.80;;
19675;SDS011;39539;52.202;9.876;2023-04-24T09:48:05;2.92;;;2.63;;
19675;SDS011;39539;52.202;9.876;2023-04-24T09:50:34;3.13;;;2.70;;
19675;SDS011;39539;52.202;9.876;2023-04-24T09:53:03;2.75;;;2.55;;
19675;SDS011;39539;52.202;9.876;2023-04-24T09:55:29;2.58;;;2.38;;
19675;SDS011;39539;52.202;9.876;2023-04-24T10:00:25;2.50;;;2.30;;
19675;SDS011;39539;52.202;9.876;2023-04-24T10:02:56;2.40;;;2.30;;
19675;SDS011;39539;52.202;9.876;2023-04-24T10:05:26;2.22;;;2.10;;
19675;SDS011;39539;52.202;9.876;2023-04-24T10:07:55;2.33;;;2.20;;
19675;SDS011;39539;52.202;9.876;2023-04-24T10:10:22;2.55;;;2.45;;
19675;SDS011;39539;52.202;9.876;2023-04-24T10:12:47;2.50;;;2.30;;
19675;SDS011;39539;52.202;9.876;2023-04-24T10:15:14;2.88;;;2.67;;
19675;SDS011;39539;52.202;9.876;2023-04-24T10:17:43;2.50;;;2.40;;
19675;SDS011;39539;52.202;9.876;2023-04-24T10:20:10;3.65;;;2.40;;
19675;SDS011;39539;52.202;9.876;2023-04-24T10:22:35;2.55;;;2.45;;
19675;SDS011;39539;52.202;9.876;2023-04-24T10:25:03;3.13;;;2.80;;
19675;SDS011;39539;52.202;9.876;2023-04-24T10:27:29;2.50;;;2.40;;
19675;SDS011;39539;52.202;9.876;2023-04-24T10:30:00;2.80;;;2.50;;
19675;SDS011;39539;52.202;9.876;2023-04-24T10:32:27;2.70;;;2.50;;
19675;SDS011;39539;52.202;9.876;2023-04-24T10:34:53;2.30;;;2.20;;
19675;SDS011;39539;52.202;9.876;2023-04-24T10:37:21;3.00;;;2.80;;
19675;SDS011;39539;52.202;9.876;2023-04-24T10:39:48;3.50;;;2.45;;
19675;SDS011;39539;52.202;9.876;2023-04-24T10:42:16;3.13;;;2.92;;
19675;SDS011;39539;52.202;9.876;2023-04-24T10:44:41;2.85;;;2.75;;
19675;SDS011;39539;52.202;9.876;2023-04-24T10:47:17;2.90;;;2.70;;
19675;SDS011;39539;52.202;9.876;2023-04-24T10:49:42;3.20;;;3.00;;
19675;SDS011;39539;52.202;9.876;2023-04-24T10:52:08;2.50;;;2.30;;
19675;SDS011;39539;52.202;9.876;2023-04-24T10:54:35;2.55;;;2.35;;
19675;SDS011;39539;52.202;9.876;2023-04-24T10:59:44;2.90;;;2.70;;
19675;SDS011;39539;52.202;9.876;2023-04-24T11:02:10;2.60;;;2.40;;
19675;SDS011;39539;52.202;9.876;2023-04-24T11:04:36;3.05;;;2.90;;
19675;SDS011;39539;52.202;9.876;2023-04-24T11:07:05;2.80;;;2.70;;
19675;SDS011;39539;52.202;9.876;2023-04-24T11:09:31;3.10;;;2.90;;
19675;SDS011;39539;52.202;9.876;2023-04-24T11:12:07;2.10;;;2.00;;
19675;SDS011;39539;52.202;9.876;2023-04-24T11:20:15;1.70;;;1.60;;
19675;SDS011;39539;52.202;9.876;2023-04-24T11:22:43;1.52;;;1.42;;
19675;SDS011;39539;52.202;9.876;2023-04-24T11:25:09;2.20;;;1.77;;
19675;SDS011;39539;52.202;9.876;2023-04-24T11:27:43;1.10;;;1.10;;
19675;SDS011;39539;52.202;9.876;2023-04-24T11:30:12;1.17;;;1.08;;
19675;SDS011;39539;52.202;9.876;2023-04-24T11:32:50;1.35;;;1.25;;
19675;SDS011;39539;52.202;9.876;2023-04-24T11:35:21;1.00;;;1.00;;
19675;SDS011;39539;52.202;9.876;2023-04-24T11:37:55;1.48;;;1.38;;
19675;SDS011;39539;52.202;9.876;2023-04-24T11:40:22;1.77;;;1.63;;
19675;SDS011;39539;52.202;9.876;2023-04-24T11:42:50;1.50;;;1.40;;
19675;SDS011;39539;52.202;9.876;2023-04-24T11:45:28;1.60;;;1.50;;
19675;SDS011;39539;52.202;9.876;2023-04-24T11:47:54;1.67;;;1.58;;
19675;SDS011;39539;52.202;9.876;2023-04-24T11:50:21;1.35;;;1.20;;
19675;SDS011;39539;52.202;9.876;2023-04-24T11:52:50;0.90;;;0.90;;
19675;SDS011;39539;52.202;9.876;2023-04-24T11:57:51;2.55;;;1.67;;
19675;SDS011;39539;52.202;9.876;2023-04-24T12:00:19;1.70;;;1.60;;
19675;SDS011;39539;52.202;9.876;2023-04-24T12:02:47;1.58;;;1.50;;
19675;SDS011;39539;52.202;9.876;2023-04-24T12:05:23;1.50;;;1.40;;
19675;SDS011;39539;52.202;9.876;2023-04-24T12:07:52;1.63;;;1.52;;
19675;SDS011;39539;52.202;9.876;2023-04-24T12:10:22;2.90;;;1.63;;
19675;SDS011;39539;52.202;9.876;2023-04-24T12:12:48;3.42;;;1.50;;
19675;SDS011;39539;52.202;9.876;2023-04-24T12:15:18;1.67;;;1.58;;
19675;SDS011;39539;52.202;9.876;2023-04-24T12:17:44;1.92;;;1.83;;
19675;SDS011;39539;52.202;9.876;2023-04-24T12:20:10;1.70;;;1.50;;
19675;SDS011;39539;52.202;9.876;2023-04-24T12:22:54;0.88;;;0.70;;
19675;SDS011;39539;52.202;9.876;2023-04-24T12:25:23;0.60;;;0.60;;
19675;SDS011;39539;52.202;9.876;2023-04-24T12:30:31;0.80;;;0.80;;
19675;SDS011;39539;52.202;9.876;2023-04-24T12:32:58;0.90;;;0.90;;
19675;SDS011;39539;52.202;9.876;2023-04-24T12:35:26;0.90;;;0.90;;
19675;SDS011;39539;52.202;9.876;2023-04-24T12:37:53;1.35;;;1.00;;
19675;SDS011;39539;52.202;9.876;2023-04-24T12:40:19;0.90;;;0.90;;
19675;SDS011;39539;52.202;9.876;2023-04-24T12:42:46;1.10;;;1.10;;
19675;SDS011;39539;52.202;9.876;2023-04-24T12:45:14;1.00;;;1.00;;
19675;SDS011;39539;52.202;9.876;2023-04-24T12:47:40;1.30;;;1.20;;
19675;SDS011;39539;52.202;9.876;2023-04-24T12:50:10;3.78;;;1.70;;
19675;SDS011;39539;52.202;9.876;2023-04-24T12:52:37;0.98;;;0.90;;
19675;SDS011;39539;52.202;9.876;2023-04-24T12:55:04;1.13;;;1.13;;
19675;SDS011;39539;52.202;9.876;2023-04-24T12:57:33;1.77;;;1.33;;
19675;SDS011;39539;52.202;9.876;2023-04-24T13:00:00;1.40;;;1.30;;
19675;SDS011;39539;52.202;9.876;2023-04-24T13:02:27;0.93;;;0.93;;
19675;SDS011;39539;52.202;9.876;2023-04-24T13:04:54;1.40;;;1.30;;
19675;SDS011;39539;52.202;9.876;2023-04-24T13:07:20;1.17;;;1.08;;
19675;SDS011;39539;52.202;9.876;2023-04-24T13:09:48;0.90;;;0.90;;
19675;SDS011;39539;52.202;9.876;2023-04-24T13:12:14;1.35;;;1.20;;
19675;SDS011;39539;52.202;9.876;2023-04-24T13:14:40;1.42;;;1.30;;
19675;SDS011;39539;52.202;9.876;2023-04-24T13:17:06;2.25;;;0.90;;
19675;SDS011;39539;52.202;9.876;2023-04-24T13:19:36;0.82;;;0.80;;
19675;SDS011;39539;52.202;9.876;2023-04-24T13:22:02;0.80;;;0.80;;
19675;SDS011;39539;52.202;9.876;2023-04-24T13:24:28;1.52;;;0.80;;
19675;SDS011;39539;52.202;9.876;2023-04-24T13:26:54;0.73;;;0.73;;
19675;SDS011;39539;52.202;9.876;2023-04-24T13:29:21;0.85;;;0.57;;
19675;SDS011;39539;52.202;9.876;2023-04-24T13:31:47;0.50;;;0.50;;
19675;SDS011;39539;52.202;9.876;2023-04-24T13:34:13;0.80;;;0.50;;
19675;SDS011;39539;52.202;9.876;2023-04-24T13:36:38;0.80;;;0.80;;
19675;SDS011;39539;52.202;9.876;2023-04-24T13:39:04;0.50;;;0.50;;
19675;SDS011;39539;52.202;9.876;2023-04-24T13:41:30;1.00;;;0.60;;
19675;SDS011;39539;52.202;9.876;2023-04-24T13:43:56;0.65;;;0.65;;
19675;SDS011;39539;52.202;9.876;2023-04-24T13:46:22;0.57;;;0.52;;
19675;SDS011;39539;52.202;9.876;2023-04-24T13:48:47;0.60;;;0.60;;
19675;SDS011;39539;52.202;9.876;2023-04-24T13:51:13;0.50;;;0.50;;
19675;SDS011;39539;52.202;9.876;2023-04-24T13:53:38;0.50;;;0.50;;
19675;SDS011;39539;52.202;9.876;2023-04-24T13:56:04;0.60;;;0.43;;
19675;SDS011;39539;52.202;9.876;2023-04-24T13:58:31;0.30;;;0.30;;
19675;SDS011;39539;52.202;9.876;2023-04-24T14:00:57;0.40;;;0.40;;
19675;SDS011;39539;52.202;9.876;2023-04-24T14:03:22;0.60;;;0.45;;
19675;SDS011;39539;52.202;9.876;2023-04-24T14:05:48;0.40;;;0.40;;
19675;SDS011;39539;52.202;9.876;2023-04-24T14:08:13;0.40;;;0.40;;
19675;SDS011;39539;52.202;9.876;2023-04-24T14:10:39;0.30;;;0.30;;
19675;SDS011;39539;52.202;9.876;2023-04-24T14:13:04;0.50;;;0.50;;
19675;SDS011;39539;52.202;9.876;2023-04-24T14:15:30;0.47;;;0.47;;
19675;SDS011;39539;52.202;9.876;2023-04-24T14:17:56;0.30;;;0.30;;
19675;SDS011;39539;52.202;9.876;2023-04-24T14:20:22;1.48;;;0.40;;
19675;SDS011;39539;52.202;9.876;2023-04-24T14:22:48;0.50;;;0.50;;
19675;SDS011;39539;52.202;9.876;2023-04-24T14:25:13;0.40;;;0.40;;
19675;SDS011;39539;52.202;9.876;2023-04-24T14:27:38;2.47;;;0.50;;
19675;SDS011;39539;52.202;9.876;2023-04-24T14:30:05;0.50;;;0.50;;
19675;SDS011;39539;52.202;9.876;2023-04-24T14:32:32;0.77;;;0.68;;
19675;SDS011;39539;52.202;9.876;2023-04-24T14:34:58;0.75;;;0.68;;
19675;SDS011;39539;52.202;9.876;2023-04-24T14:37:23;0.85;;;0.85;;
19675;SDS011;39539;52.202;9.876;2023-04-24T14:39:49;1.35;;;0.80;;
19675;SDS011;39539;52.202;9.876;2023-04-24T14:42:14;0.95;;;0.95;;
19675;SDS011;39539;52.202;9.876;2023-04-24T14:44:41;0.93;;;0.93;;
19675;SDS011;39539;52.202;9.876;2023-04-24T14:47:07;1.27;;;1.20;;
19675;SDS011;39539;52.202;9.876;2023-04-24T14:49:32;1.63;;;1.50;;
19675;SDS011;39539;52.202;9.876;2023-04-24T14:51:58;1.50;;;1.40;;
19675;SDS011;39539;52.202;9.876;2023-04-24T14:54:23;1.70;;;1.60;;
19675;SDS011;39539;52.202;9.876;2023-04-24T14:56:49;1.70;;;1.60;;
19675;SDS011;39539;52.202;9.876;2023-04-24T14:59:14;1.80;;;1.70;;
19675;SDS011;39539;52.202;9.876;2023-04-24T15:01:40;2.00;;;1.90;;